createdAt,value
2019-06-26T00:00:36.615Z,-78
2019-06-26T00:03:03.548Z,-79
2019-06-26T00:05:31.575Z,-80
2019-06-26T00:07:58.320Z,-77
2019-06-26T00:10:25.073Z,-78
2019-06-26T00:12:51.962Z,-78
2019-06-26T00:15:18.708Z,-79
2019-06-26T00:17:45.427Z,-78
2019-06-26T00:20:13.198Z,-79
2019-06-26T00:22:39.931Z,-78
2019-06-26T00:25:06.874Z,-78
2019-06-26T00:27:33.683Z,-80
2019-06-26T00:30:00.436Z,-77
2019-06-26T00:32:27.195Z,-78
2019-06-26T00:34:53.994Z,-79
2019-06-26T00:37:20.729Z,-77
2019-06-26T00:39:47.461Z,-77
2019-06-26T00:42:14.253Z,-78
2019-06-26T00:44:40.982Z,-78
2019-06-26T00:47:07.716Z,-78
2019-06-26T00:49:34.572Z,-77
2019-06-26T00:52:01.301Z,-79
2019-06-26T00:54:28.028Z,-78
2019-06-26T00:56:54.944Z,-80
2019-06-26T00:59:21.674Z,-76
2019-06-26T01:01:48.400Z,-78
2019-06-26T01:04:15.321Z,-80
2019-06-26T01:06:42.070Z,-79
2019-06-26T01:09:08.796Z,-77
2019-06-26T01:11:35.788Z,-79
2019-06-26T01:14:02.956Z,-78
2019-06-26T01:16:29.699Z,-78
2019-06-26T01:18:56.606Z,-79
2019-06-26T01:21:23.454Z,-79
2019-06-26T01:23:50.205Z,-78
2019-06-26T01:26:17.086Z,-79
2019-06-26T01:28:43.828Z,-79
2019-06-26T01:31:10.563Z,-78
2019-06-26T01:33:37.457Z,-79
2019-06-26T01:36:04.212Z,-78
2019-06-26T01:38:30.966Z,-78
2019-06-26T01:40:57.895Z,-79
2019-06-26T01:43:24.625Z,-79
2019-06-26T01:45:51.358Z,-79
2019-06-26T01:48:18.248Z,-79
2019-06-26T01:50:45.105Z,-79
2019-06-26T01:53:11.854Z,-78
2019-06-26T01:55:38.735Z,-79
2019-06-26T01:58:05.469Z,-78
2019-06-26T02:00:32.222Z,-78
2019-06-26T02:02:59.009Z,-79
2019-06-26T02:05:25.736Z,-78
2019-06-26T02:07:52.499Z,-78
2019-06-26T02:10:19.593Z,-78
2019-06-26T02:12:46.352Z,-79
2019-06-26T02:15:13.985Z,-79
2019-06-26T02:17:40.893Z,-78
2019-06-26T02:20:08.636Z,-78
2019-06-26T02:22:35.401Z,-78
2019-06-26T02:25:04.180Z,-79
2019-06-26T02:27:30.937Z,-78
2019-06-26T02:29:57.693Z,-79
2019-06-26T02:32:24.602Z,-78
2019-06-26T02:34:51.326Z,-78
2019-06-26T02:37:18.083Z,-77
2019-06-26T02:39:44.991Z,-77
2019-06-26T02:42:11.721Z,-77
2019-06-26T02:44:52.161Z,-76
2019-06-26T02:47:19.782Z,-78
2019-06-26T02:49:36.307Z,-78
2019-06-26T02:52:03.192Z,-79
2019-06-26T02:54:30.081Z,-78
2019-06-26T02:56:56.924Z,-79
2019-06-26T02:59:23.680Z,-78
2019-06-26T03:01:50.577Z,-80
2019-06-26T03:04:17.349Z,-79
2019-06-26T03:06:44.121Z,-77
2019-06-26T03:09:11.004Z,-78
2019-06-26T03:11:37.740Z,-79
2019-06-26T03:14:04.512Z,-78
2019-06-26T03:16:31.430Z,-78
2019-06-26T03:18:58.184Z,-79
2019-06-26T03:21:24.913Z,-78
2019-06-26T03:23:51.720Z,-75
2019-06-26T03:26:18.461Z,-75
2019-06-26T03:28:45.223Z,-78
2019-06-26T03:31:12.129Z,-80
2019-06-26T03:33:38.899Z,-78
2019-06-26T03:36:05.644Z,-78
2019-06-26T03:38:32.451Z,-78
2019-06-26T03:40:59.172Z,-79
2019-06-26T03:43:25.913Z,-78
2019-06-26T03:45:52.814Z,-78
2019-06-26T03:48:19.532Z,-80
2019-06-26T03:50:46.280Z,-78
2019-06-26T03:53:13.252Z,-79
2019-06-26T03:55:40.403Z,-79
2019-06-26T03:58:07.163Z,-78
2019-06-26T04:00:41.780Z,-79
2019-06-26T04:03:08.711Z,-79
2019-06-26T04:05:35.544Z,-79
2019-06-26T04:08:02.769Z,-79
2019-06-26T04:10:49.233Z,-79
2019-06-26T04:13:16.121Z,-78
2019-06-26T04:15:43.169Z,-79
2019-06-26T04:18:09.959Z,-77
2019-06-26T04:20:36.845Z,-79
2019-06-26T04:23:03.557Z,-72
2019-06-26T04:25:30.277Z,-71
2019-06-26T04:27:57.058Z,-70
2019-06-26T04:30:24.104Z,-71
2019-06-26T04:32:50.816Z,-71
2019-06-26T04:35:17.808Z,-70
2019-06-26T04:37:44.627Z,-70
2019-06-26T04:40:11.861Z,-70
2019-06-26T04:42:54.380Z,-69
2019-06-26T04:45:21.224Z,-70
2019-06-26T04:47:48.071Z,-70
2019-06-26T04:50:15.474Z,-70
2019-06-26T04:52:42.187Z,-70
2019-06-26T04:55:09.755Z,-71
2019-06-26T04:57:36.784Z,-71
2019-06-26T05:00:08.109Z,-70
2019-06-26T05:02:34.973Z,-71
2019-06-26T05:05:03.071Z,-72
2019-06-26T05:07:29.816Z,-71
2019-06-26T05:09:57.133Z,-70
2019-06-26T05:12:24.113Z,-70
2019-06-26T05:14:50.931Z,-69
2019-06-26T05:17:17.663Z,-70
2019-06-26T05:19:44.469Z,-71
2019-06-26T05:22:11.195Z,-71
2019-06-26T05:24:37.929Z,-71
2019-06-26T05:27:05.908Z,-71
2019-06-26T05:29:32.558Z,-71
2019-06-26T05:31:59.317Z,-72
2019-06-26T05:34:26.181Z,-70
2019-06-26T05:36:52.902Z,-71
2019-06-26T05:39:19.610Z,-70
2019-06-26T05:41:46.427Z,-71
2019-06-26T05:44:13.144Z,-70
2019-06-26T05:46:39.888Z,-72
2019-06-26T05:49:06.929Z,-71
2019-06-26T05:51:33.658Z,-71
2019-06-26T05:54:00.470Z,-71
2019-06-26T05:56:27.366Z,-72
2019-06-26T05:58:54.564Z,-75
2019-06-26T06:01:21.304Z,-79
2019-06-26T06:03:48.113Z,-79
2019-06-26T06:06:15.074Z,-79
2019-06-26T06:08:41.838Z,-77
2019-06-26T06:11:08.727Z,-79
2019-06-26T06:13:35.480Z,-78
2019-06-26T06:16:06.161Z,-79
2019-06-26T06:18:30.852Z,-78
2019-06-26T06:20:58.854Z,-80
2019-06-26T06:23:25.664Z,-80
2019-06-26T06:25:52.565Z,-78
2019-06-26T06:28:19.306Z,-79
2019-06-26T06:30:46.034Z,-79
2019-06-26T06:33:12.947Z,-79
2019-06-26T06:35:39.843Z,-78
2019-06-26T06:38:06.670Z,-79
2019-06-26T06:40:33.543Z,-79
2019-06-26T06:43:00.314Z,-80
2019-06-26T06:45:27.653Z,-78
2019-06-26T06:47:54.546Z,-79
2019-06-26T06:50:21.298Z,-78
2019-06-26T06:52:48.067Z,-79
2019-06-26T06:55:15.297Z,-79
2019-06-26T06:57:42.050Z,-79
2019-06-26T07:00:09.089Z,-78
2019-06-26T07:02:36.314Z,-79
2019-06-26T07:05:06.512Z,-79
2019-06-26T07:07:33.227Z,-77
2019-06-26T07:10:00.124Z,-79
2019-06-26T07:12:29.693Z,-78
2019-06-26T07:14:56.446Z,-79
2019-06-26T07:17:23.296Z,-78
2019-06-26T07:19:50.045Z,-79
2019-06-26T07:22:18.612Z,-77
2019-06-26T07:24:45.470Z,-75
2019-06-26T07:27:12.229Z,-75
2019-06-26T07:29:38.975Z,-73
2019-06-26T07:32:05.853Z,-74
2019-06-26T07:34:32.568Z,-73
2019-06-26T07:36:59.332Z,-74
2019-06-26T07:39:26.210Z,-75
2019-06-26T07:41:52.947Z,-75
2019-06-26T07:44:19.716Z,-78
2019-06-26T07:46:46.647Z,-79
2019-06-26T07:49:13.412Z,-78
2019-06-26T07:51:40.185Z,-78
2019-06-26T07:54:06.972Z,-80
2019-06-26T07:56:33.805Z,-83
2019-06-26T07:59:00.554Z,-79
2019-06-26T08:01:27.443Z,-78
2019-06-26T08:03:54.188Z,-79
2019-06-26T08:06:20.938Z,-79
2019-06-26T08:08:48.394Z,-75
2019-06-26T08:11:15.124Z,-79
2019-06-26T08:13:41.855Z,-79
2019-06-26T08:16:08.751Z,-80
2019-06-26T08:18:35.489Z,-79
2019-06-26T08:21:12.293Z,-80
2019-06-26T08:23:30.838Z,-79
2019-06-26T08:25:57.597Z,-78
2019-06-26T08:28:24.337Z,-77
2019-06-26T08:30:51.211Z,-78
2019-06-26T08:33:17.984Z,-78
2019-06-26T08:35:44.723Z,-80
2019-06-26T08:38:15.470Z,-79
2019-06-26T08:40:40.124Z,-78
2019-06-26T08:43:06.867Z,-77
2019-06-26T08:45:33.696Z,-80
2019-06-26T08:48:16.789Z,-78
2019-06-26T08:50:29.000Z,-79
2019-06-26T08:52:55.869Z,-78
2019-06-26T08:55:22.617Z,-76
2019-06-26T08:57:49.430Z,-79
2019-06-26T09:00:17.156Z,-79
2019-06-26T09:02:43.976Z,-74
2019-06-26T09:05:12.028Z,-79
2019-06-26T09:07:38.892Z,-79
2019-06-26T09:10:06.513Z,-78
2019-06-26T09:12:33.271Z,-80
2019-06-26T09:15:00.095Z,-79
2019-06-26T09:17:26.833Z,-79
2019-06-26T09:19:53.587Z,-77
2019-06-26T09:22:20.402Z,-79
2019-06-26T09:24:47.121Z,-79
2019-06-26T09:27:15.042Z,-80
2019-06-26T09:29:42.244Z,-79
2019-06-26T09:32:09.208Z,-78
2019-06-26T09:34:35.928Z,-81
2019-06-26T09:37:02.812Z,-78
2019-06-26T09:39:29.574Z,-80
2019-06-26T09:41:56.296Z,-80
2019-06-26T09:44:23.125Z,-78
2019-06-26T09:46:49.859Z,-81
2019-06-26T09:49:16.665Z,-76
2019-06-26T09:51:43.571Z,-79
2019-06-26T09:54:10.347Z,-78
2019-06-26T09:56:37.070Z,-81
2019-06-26T09:59:04.009Z,-80
2019-06-26T10:01:30.755Z,-79
2019-06-26T10:03:57.490Z,-75
2019-06-26T10:06:24.377Z,-81
2019-06-26T10:08:54.080Z,-79
2019-06-26T10:11:19.800Z,-79
2019-06-26T10:13:46.701Z,-78
2019-06-26T10:16:13.548Z,-79
2019-06-26T10:18:40.295Z,-79
2019-06-26T10:21:07.201Z,-79
2019-06-26T10:23:33.941Z,-79
2019-06-26T10:26:02.821Z,-76
2019-06-26T10:28:29.577Z,-79
2019-06-26T10:30:56.323Z,-80
2019-06-26T10:33:23.069Z,-78
2019-06-26T10:35:49.974Z,-82
2019-06-26T10:38:16.727Z,-74
2019-06-26T10:40:44.637Z,-78
2019-06-26T10:43:11.849Z,-76
2019-06-26T10:45:38.620Z,-77
2019-06-26T10:48:05.446Z,-78
2019-06-26T10:50:32.347Z,-77
2019-06-26T10:52:59.127Z,-78
2019-06-26T10:55:25.902Z,-76
2019-06-26T10:57:52.764Z,-77
2019-06-26T11:00:20.575Z,-79
2019-06-26T11:02:47.315Z,-78
2019-06-26T11:05:15.031Z,-79
2019-06-26T11:07:41.776Z,-78
2019-06-26T11:10:08.911Z,-77
2019-06-26T11:12:35.815Z,-77
2019-06-26T11:15:07.678Z,-77
2019-06-26T11:17:36.241Z,-78
2019-06-26T11:20:10.536Z,-78
2019-06-26T11:22:37.337Z,-78
2019-06-26T11:25:06.169Z,-78
2019-06-26T11:27:32.983Z,-78
2019-06-26T11:29:59.742Z,-78
2019-06-26T11:32:26.462Z,-78
2019-06-26T11:34:53.244Z,-79
2019-06-26T11:37:22.934Z,-78
2019-06-26T11:39:48.521Z,-79
2019-06-26T11:42:15.410Z,-77
2019-06-26T11:44:42.139Z,-77
2019-06-26T11:47:08.878Z,-77
2019-06-26T11:49:35.748Z,-77
2019-06-26T11:52:02.617Z,-77
2019-06-26T11:54:29.394Z,-78
2019-06-26T11:56:56.349Z,-78
2019-06-26T11:59:23.093Z,-76
2019-06-26T12:01:49.855Z,-76
2019-06-26T12:04:16.768Z,-77
2019-06-26T12:06:45.935Z,-80
2019-06-26T12:09:12.077Z,-76
2019-06-26T12:11:38.988Z,-78
2019-06-26T12:14:05.944Z,-79
2019-06-26T12:16:32.752Z,-78
2019-06-26T12:18:59.556Z,-78
2019-06-26T12:21:26.290Z,-78
2019-06-26T12:23:53.030Z,-79
2019-06-26T12:26:19.943Z,-78
2019-06-26T12:28:46.677Z,-79
2019-06-26T12:31:13.408Z,-78
2019-06-26T12:33:40.316Z,-78
2019-06-26T12:36:07.061Z,-78
2019-06-26T12:38:33.814Z,-77
2019-06-26T12:41:00.610Z,-75
2019-06-26T12:43:27.351Z,-78
2019-06-26T12:45:54.075Z,-73
2019-06-26T12:48:20.893Z,-78
2019-06-26T12:50:47.674Z,-78
2019-06-26T12:53:14.439Z,-78
2019-06-26T12:55:41.307Z,-74
2019-06-26T12:58:14.752Z,-77
2019-06-26T13:00:36.571Z,-77
2019-06-26T13:03:04.100Z,-79
2019-06-26T13:05:30.877Z,-76
2019-06-26T13:07:57.680Z,-76
2019-06-26T13:10:24.741Z,-76
2019-06-26T13:12:51.501Z,-78
2019-06-26T13:15:18.435Z,-79
2019-06-26T13:17:45.331Z,-80
2019-06-26T13:20:12.282Z,-77
2019-06-26T13:22:39.033Z,-77
2019-06-26T13:25:07.042Z,-76
2019-06-26T13:27:33.872Z,-75
2019-06-26T13:30:00.812Z,-78
2019-06-26T13:32:27.669Z,-78
2019-06-26T13:34:54.729Z,-78
2019-06-26T13:37:21.479Z,-78
2019-06-26T13:39:48.388Z,-76
2019-06-26T13:42:15.114Z,-78
2019-06-26T13:44:41.841Z,-78
2019-06-26T13:47:08.880Z,-76
2019-06-26T13:49:35.668Z,-76
2019-06-26T13:52:02.573Z,-76
2019-06-26T13:54:29.387Z,-78
2019-06-26T13:56:56.128Z,-77
2019-06-26T13:59:22.917Z,-77
2019-06-26T14:01:49.851Z,-76
2019-06-26T14:04:17.297Z,-79
2019-06-26T14:06:44.039Z,-77
2019-06-26T14:09:10.931Z,-76
2019-06-26T14:11:37.691Z,-77
2019-06-26T14:14:04.434Z,-77
2019-06-26T14:16:31.355Z,-76
2019-06-26T14:18:58.132Z,-77
2019-06-26T14:21:26.299Z,-77
2019-06-26T14:23:53.388Z,-76
2019-06-26T14:26:20.130Z,-77
2019-06-26T14:28:46.868Z,-77
2019-06-26T14:31:13.749Z,-76
2019-06-26T14:33:40.502Z,-73
2019-06-26T14:36:07.373Z,-74
2019-06-26T14:38:34.314Z,-73
2019-06-26T14:41:01.036Z,-73
2019-06-26T14:43:27.771Z,-74
2019-06-26T14:45:54.557Z,-73
2019-06-26T14:48:21.262Z,-74
2019-06-26T14:50:47.974Z,-74
2019-06-26T14:53:14.858Z,-74
2019-06-26T14:55:41.607Z,-74
2019-06-26T14:58:08.363Z,-74
2019-06-26T15:00:35.166Z,-74
2019-06-26T15:03:02.619Z,-73
2019-06-26T15:05:30.269Z,-75
2019-06-26T15:07:57.152Z,-74
2019-06-26T15:10:23.878Z,-73
2019-06-26T15:12:50.630Z,-74
2019-06-26T15:15:17.657Z,-76
2019-06-26T15:18:16.534Z,-74
2019-06-26T15:20:45.330Z,-73
2019-06-26T15:23:12.073Z,-72
2019-06-26T15:25:38.832Z,-77
2019-06-26T15:28:05.627Z,-76
2019-06-26T15:30:32.366Z,-77
2019-06-26T15:32:59.129Z,-76
2019-06-26T15:35:26.059Z,-76
2019-06-26T15:38:07.608Z,-74
2019-06-26T15:40:34.496Z,-78
2019-06-26T15:43:01.295Z,-76
2019-06-26T15:45:27.995Z,-77
2019-06-26T15:47:54.917Z,-78
2019-06-26T15:50:21.659Z,-79
2019-06-26T15:52:48.443Z,-78
2019-06-26T15:55:15.839Z,-77
2019-06-26T15:57:43.724Z,-77
2019-06-26T16:00:11.201Z,-77
2019-06-26T16:02:38.079Z,-79
2019-06-26T16:05:06.155Z,-76
2019-06-26T16:07:43.611Z,-74
2019-06-26T16:10:16.599Z,-75
2019-06-26T16:12:43.704Z,-76
2019-06-26T16:15:11.868Z,-78
2019-06-26T16:17:43.287Z,-79
2019-06-26T16:20:10.761Z,-79
2019-06-26T16:22:37.585Z,-79
2019-06-26T16:25:05.178Z,-74
2019-06-26T16:27:31.974Z,-72
2019-06-26T16:29:58.741Z,-75
2019-06-26T16:32:25.494Z,-79
2019-06-26T16:34:59.964Z,-76
2019-06-26T16:37:26.693Z,-77
2019-06-26T16:39:53.454Z,-77
2019-06-26T16:42:20.250Z,-79
2019-06-26T16:44:47.426Z,-78
2019-06-26T16:47:14.099Z,-79
2019-06-26T16:49:41.017Z,-76
2019-06-26T16:52:07.729Z,-79
2019-06-26T16:54:37.366Z,-77
2019-06-26T16:57:04.258Z,-75
2019-06-26T16:59:31.010Z,-76
2019-06-26T17:02:06.953Z,-76
2019-06-26T17:04:32.173Z,-75
2019-06-26T17:06:59.171Z,-73
2019-06-26T17:09:27.685Z,-75
2019-06-26T17:11:54.475Z,-76
2019-06-26T17:14:21.234Z,-77
2019-06-26T17:16:47.967Z,-76
2019-06-26T17:19:14.964Z,-77
2019-06-26T17:21:41.737Z,-77
2019-06-26T17:24:08.472Z,-79
2019-06-26T17:26:39.501Z,-76
2019-06-26T17:29:06.681Z,-75
2019-06-26T17:31:33.493Z,-76
2019-06-26T17:34:00.378Z,-75
2019-06-26T17:36:28.879Z,-76
2019-06-26T17:38:55.918Z,-75
2019-06-26T17:41:22.809Z,-77
2019-06-26T17:43:49.663Z,-79
2019-06-26T17:46:16.398Z,-77
2019-06-26T17:48:43.298Z,-77
2019-06-26T17:51:10.059Z,-78
2019-06-26T17:53:36.790Z,-78
2019-06-26T17:56:03.722Z,-76
2019-06-26T17:58:31.867Z,-75
2019-06-26T18:00:58.566Z,-77
2019-06-26T18:03:25.464Z,-78
2019-06-26T18:05:52.492Z,-77
2019-06-26T18:08:19.416Z,-77
2019-06-26T18:10:46.297Z,-76
2019-06-26T18:13:13.056Z,-76
2019-06-26T18:15:39.786Z,-79
2019-06-26T18:18:06.591Z,-77
2019-06-26T18:20:33.319Z,-76
2019-06-26T18:23:07.176Z,-77
2019-06-26T18:25:29.266Z,-75
2019-06-26T18:27:56.268Z,-77
2019-06-26T18:30:23.503Z,-76
2019-06-26T18:32:50.372Z,-78
2019-06-26T18:35:17.185Z,-77
2019-06-26T18:37:44.120Z,-77
2019-06-26T18:40:10.941Z,-78
2019-06-26T18:42:38.504Z,-75
2019-06-26T18:45:05.642Z,-78
2019-06-26T18:47:32.384Z,-76
2019-06-26T18:49:59.147Z,-78
2019-06-26T18:52:26.025Z,-79
2019-06-26T18:54:52.766Z,-77
2019-06-26T18:57:19.496Z,-76
2019-06-26T18:59:46.286Z,-75
2019-06-26T19:02:13.161Z,-77
2019-06-26T19:04:39.883Z,-78
2019-06-26T19:07:06.781Z,-78
2019-06-26T19:09:33.730Z,-79
2019-06-26T19:12:00.532Z,-78
2019-06-26T19:14:27.282Z,-78
2019-06-26T19:16:54.037Z,-77
2019-06-26T19:19:20.766Z,-78
2019-06-26T19:21:47.702Z,-77
2019-06-26T19:24:14.569Z,-77
2019-06-26T19:26:41.366Z,-75
2019-06-26T19:29:08.283Z,-79
2019-06-26T19:31:35.047Z,-81
2019-06-26T19:34:01.785Z,-77
2019-06-26T19:36:28.913Z,-77
2019-06-26T19:38:55.623Z,-78
2019-06-26T19:41:24.325Z,-76
2019-06-26T19:44:10.962Z,-78
2019-06-26T19:46:41.018Z,-78
2019-06-26T19:49:06.312Z,-76
2019-06-26T19:51:33.535Z,-77
2019-06-26T19:54:00.299Z,-77
2019-06-26T19:56:27.229Z,-78
2019-06-26T19:58:53.991Z,-78
2019-06-26T20:01:20.707Z,-77
2019-06-26T20:03:47.447Z,-78
2019-06-26T20:06:14.430Z,-76
2019-06-26T20:08:52.187Z,-80
2019-06-26T20:11:13.522Z,-78
2019-06-26T20:13:40.507Z,-78
2019-06-26T20:16:07.272Z,-78
2019-06-26T20:18:34.010Z,-77
2019-06-26T20:21:05.292Z,-77
2019-06-26T20:23:32.202Z,-77
2019-06-26T20:26:00.632Z,-77
2019-06-26T20:28:27.817Z,-78
2019-06-26T20:30:54.672Z,-76
2019-06-26T20:33:23.602Z,-78
2019-06-26T20:35:50.630Z,-77
2019-06-26T20:38:19.277Z,-77
2019-06-26T20:40:46.391Z,-76
2019-06-26T20:43:13.468Z,-77
2019-06-26T20:45:40.504Z,-77
2019-06-26T20:48:07.427Z,-75
2019-06-26T20:50:36.357Z,-74
2019-06-26T20:53:03.944Z,-77
2019-06-26T20:55:30.771Z,-77
2019-06-26T20:57:57.811Z,-78
2019-06-26T21:00:24.918Z,-78
2019-06-26T21:02:54.154Z,-77
2019-06-26T21:05:20.755Z,-77
2019-06-26T21:07:47.655Z,-79
2019-06-26T21:10:14.509Z,-80
2019-06-26T21:12:41.396Z,-78
2019-06-26T21:15:10.031Z,-77
2019-06-26T21:17:36.790Z,-79
2019-06-26T21:20:05.299Z,-79
2019-06-26T21:22:32.053Z,-78
2019-06-26T21:24:58.807Z,-79
2019-06-26T21:27:25.623Z,-78
2019-06-26T21:29:52.359Z,-78
2019-06-26T21:32:19.541Z,-79
2019-06-26T21:34:46.796Z,-78
2019-06-26T21:37:13.578Z,-80
2019-06-26T21:39:40.315Z,-79
2019-06-26T21:42:07.242Z,-79
2019-06-26T21:44:33.973Z,-78
2019-06-26T21:47:00.740Z,-78
2019-06-26T21:49:27.546Z,-79
2019-06-26T21:51:54.308Z,-78
2019-06-26T21:54:21.013Z,-77
2019-06-26T21:56:47.809Z,-79
2019-06-26T21:59:14.555Z,-78
2019-06-26T22:01:41.302Z,-80
2019-06-26T22:04:08.099Z,-79
2019-06-26T22:06:35.803Z,-78
2019-06-26T22:09:04.233Z,-79
2019-06-26T22:11:31.069Z,-79
2019-06-26T22:13:57.921Z,-78
2019-06-26T22:16:24.691Z,-78
2019-06-26T22:18:51.465Z,-79
2019-06-26T22:21:18.223Z,-78
2019-06-26T22:23:44.938Z,-78
2019-06-26T22:26:14.168Z,-79
2019-06-26T22:28:40.359Z,-79
2019-06-26T22:31:07.105Z,-78
2019-06-26T22:33:33.902Z,-78
2019-06-26T22:36:00.853Z,-80
2019-06-26T22:38:27.534Z,-79
2019-06-26T22:40:54.326Z,-79
2019-06-26T22:43:21.256Z,-77
2019-06-26T22:45:47.986Z,-79
2019-06-26T22:48:14.808Z,-78
2019-06-26T22:50:41.510Z,-79
2019-06-26T22:53:08.249Z,-80
2019-06-26T22:55:35.059Z,-77
2019-06-26T22:58:01.818Z,-79
2019-06-26T23:00:28.540Z,-78
2019-06-26T23:02:55.348Z,-78
2019-06-26T23:05:22.167Z,-79
2019-06-26T23:07:48.933Z,-79
2019-06-26T23:10:17.248Z,-78
2019-06-26T23:12:44.000Z,-78
2019-06-26T23:15:11.855Z,-79
2019-06-26T23:17:38.654Z,-79
2019-06-26T23:20:07.122Z,-78
2019-06-26T23:22:33.979Z,-78
2019-06-26T23:25:00.804Z,-79
2019-06-26T23:27:27.540Z,-80
2019-06-26T23:29:54.304Z,-79
2019-06-26T23:32:21.120Z,-79
2019-06-26T23:34:47.861Z,-79
2019-06-26T23:37:14.629Z,-77
2019-06-26T23:39:41.428Z,-75
2019-06-26T23:42:08.189Z,-78
2019-06-26T23:44:34.941Z,-79
2019-06-26T23:47:01.718Z,-78
2019-06-26T23:49:28.478Z,-77
2019-06-26T23:51:55.221Z,-78
2019-06-26T23:54:22.030Z,-76
2019-06-26T23:56:48.779Z,-78
2019-06-26T23:59:15.531Z,-77
